sensor_id;sensor_type;location;lat;lon;timestamp;pressure;altitude;pressure_sealevel;temperature;humidity
77041;BME280;65974;42.664;23.264;2023-04-29T00:00:19;94430.16;;;5.41;61.01
77041;BME280;65974;42.664;23.264;2023-04-29T00:02:45;94438.78;;;5.38;61.81
77041;BME280;65974;42.664;23.264;2023-04-29T00:05:10;94441.31;;;5.35;61.77
77041;BME280;65974;42.664;23.264;2023-04-29T00:07:36;94434.59;;;5.37;61.68
77041;BME280;65974;42.664;23.264;2023-04-29T00:10:02;94431.97;;;5.37;61.82
77041;BME280;65974;42.664;23.264;2023-04-29T00:12:27;94434.59;;;5.37;61.48
77041;BME280;65974;42.664;23.264;2023-04-29T00:14:54;94442.34;;;5.46;61.78
77041;BME280;65974;42.664;23.264;2023-04-29T00:17:20;94443.59;;;5.52;61.49
77041;BME280;65974;42.664;23.264;2023-04-29T00:19:45;94442.16;;;5.55;61.27
77041;BME280;65974;42.664;23.264;2023-04-29T00:22:12;94435.88;;;5.43;61.85
77041;BME280;65974;42.664;23.264;2023-04-29T00:24:38;94442.53;;;5.37;62.33
77041;BME280;65974;42.664;23.264;2023-04-29T00:27:03;94451.16;;;5.34;62.37
77041;BME280;65974;42.664;23.264;2023-04-29T00:29:30;94448.94;;;5.36;62.54
77041;BME280;65974;42.664;23.264;2023-04-29T00:31:55;94444.38;;;5.37;63.02
77041;BME280;65974;42.664;23.264;2023-04-29T00:34:21;94447.16;;;5.25;63.89
77041;BME280;65974;42.664;23.264;2023-04-29T00:36:46;94448.16;;;5.20;64.53
77041;BME280;65974;42.664;23.264;2023-04-29T00:39:12;94441.78;;;5.21;65.36
77041;BME280;65974;42.664;23.264;2023-04-29T00:41:38;94446.31;;;5.21;65.89
77041;BME280;65974;42.664;23.264;2023-04-29T00:44:03;94442.88;;;5.20;65.84
77041;BME280;65974;42.664;23.264;2023-04-29T00:46:29;94431.56;;;5.20;65.77
77041;BME280;65974;42.664;23.264;2023-04-29T00:48:54;94431.13;;;5.18;65.91
77041;BME280;65974;42.664;23.264;2023-04-29T00:51:20;94433.63;;;5.11;66.88
77041;BME280;65974;42.664;23.264;2023-04-29T00:53:46;94434.16;;;4.85;67.59
77041;BME280;65974;42.664;23.264;2023-04-29T00:56:12;94430.84;;;4.72;67.32
77041;BME280;65974;42.664;23.264;2023-04-29T00:58:39;94430.22;;;4.63;67.10
77041;BME280;65974;42.664;23.264;2023-04-29T01:01:05;94423.41;;;4.62;67.47
77041;BME280;65974;42.664;23.264;2023-04-29T01:03:31;94416.69;;;4.65;66.94
77041;BME280;65974;42.664;23.264;2023-04-29T01:09:19;94402.22;;;4.59;67.67
77041;BME280;65974;42.664;23.264;2023-04-29T01:14:32;94409.69;;;4.41;68.31
77041;BME280;65974;42.664;23.264;2023-04-29T01:17:00;94401.72;;;4.38;68.83
77041;BME280;65974;42.664;23.264;2023-04-29T01:22:05;94395.53;;;4.18;69.39
77041;BME280;65974;42.664;23.264;2023-04-29T01:24:30;94389.34;;;4.11;69.48
77041;BME280;65974;42.664;23.264;2023-04-29T01:27:04;94398.75;;;4.12;69.84
77041;BME280;65974;42.664;23.264;2023-04-29T01:29:37;94396.75;;;4.21;69.75
77041;BME280;65974;42.664;23.264;2023-04-29T01:32:05;94399.38;;;4.21;70.08
77041;BME280;65974;42.664;23.264;2023-04-29T01:35:03;94402.44;;;4.23;69.68
77041;BME280;65974;42.664;23.264;2023-04-29T01:37:40;94403.09;;;4.20;69.61
77041;BME280;65974;42.664;23.264;2023-04-29T01:40:15;94393.25;;;4.17;69.66
77041;BME280;65974;42.664;23.264;2023-04-29T01:43:04;94391.72;;;4.16;69.89
77041;BME280;65974;42.664;23.264;2023-04-29T01:45:37;94397.09;;;4.19;69.91
77041;BME280;65974;42.664;23.264;2023-04-29T01:48:05;94396.50;;;4.26;70.27
77041;BME280;65974;42.664;23.264;2023-04-29T01:50:32;94399.47;;;4.24;70.18
77041;BME280;65974;42.664;23.264;2023-04-29T01:52:58;94391.81;;;4.35;69.79
77041;BME280;65974;42.664;23.264;2023-04-29T01:55:23;94401.34;;;4.24;70.21
77041;BME280;65974;42.664;23.264;2023-04-29T01:57:51;94399.19;;;4.14;70.24
77041;BME280;65974;42.664;23.264;2023-04-29T02:00:17;94397.03;;;4.04;70.44
77041;BME280;65974;42.664;23.264;2023-04-29T02:02:42;94401.75;;;4.10;70.67
77041;BME280;65974;42.664;23.264;2023-04-29T02:05:08;94390.19;;;4.15;70.42
77041;BME280;65974;42.664;23.264;2023-04-29T02:07:34;94395.28;;;4.08;70.66
77041;BME280;65974;42.664;23.264;2023-04-29T02:09:59;94395.94;;;4.05;70.70
77041;BME280;65974;42.664;23.264;2023-04-29T02:12:25;94404.94;;;4.04;70.75
77041;BME280;65974;42.664;23.264;2023-04-29T02:14:53;94412.44;;;4.02;70.79
77041;BME280;65974;42.664;23.264;2023-04-29T02:17:19;94405.47;;;3.81;71.24
77041;BME280;65974;42.664;23.264;2023-04-29T02:19:45;94397.28;;;3.99;71.00
77041;BME280;65974;42.664;23.264;2023-04-29T02:22:10;94396.25;;;3.87;71.62
77041;BME280;65974;42.664;23.264;2023-04-29T02:24:37;94396.00;;;3.92;71.51
77041;BME280;65974;42.664;23.264;2023-04-29T02:27:06;94402.56;;;3.99;69.57
77041;BME280;65974;42.664;23.264;2023-04-29T02:29:32;94395.75;;;3.98;70.10
77041;BME280;65974;42.664;23.264;2023-04-29T02:31:57;94397.19;;;3.95;70.44
77041;BME280;65974;42.664;23.264;2023-04-29T02:34:23;94398.63;;;3.92;71.44
77041;BME280;65974;42.664;23.264;2023-04-29T02:36:49;94399.50;;;3.97;70.66
77041;BME280;65974;42.664;23.264;2023-04-29T02:39:15;94390.34;;;4.06;70.33
77041;BME280;65974;42.664;23.264;2023-04-29T02:41:41;94396.28;;;4.03;70.39
77041;BME280;65974;42.664;23.264;2023-04-29T02:44:06;94391.44;;;4.05;69.89
77041;BME280;65974;42.664;23.264;2023-04-29T02:46:32;94398.25;;;4.06;69.83
77041;BME280;65974;42.664;23.264;2023-04-29T02:49:00;94396.41;;;3.94;70.94
77041;BME280;65974;42.664;23.264;2023-04-29T02:51:26;94400.34;;;4.01;70.61
77041;BME280;65974;42.664;23.264;2023-04-29T02:53:52;94403.91;;;3.92;71.54
77041;BME280;65974;42.664;23.264;2023-04-29T02:56:18;94406.47;;;4.05;71.13
77041;BME280;65974;42.664;23.264;2023-04-29T02:58:44;94419.59;;;4.17;70.16
77041;BME280;65974;42.664;23.264;2023-04-29T03:01:09;94428.38;;;3.93;71.46
77041;BME280;65974;42.664;23.264;2023-04-29T03:03:35;94423.47;;;3.91;71.77
77041;BME280;65974;42.664;23.264;2023-04-29T03:06:02;94411.56;;;3.98;71.43
77041;BME280;65974;42.664;23.264;2023-04-29T03:08:27;94415.34;;;3.84;71.97
77041;BME280;65974;42.664;23.264;2023-04-29T03:10:53;94415.00;;;3.86;71.96
77041;BME280;65974;42.664;23.264;2023-04-29T03:13:19;94423.47;;;3.79;71.89
77041;BME280;65974;42.664;23.264;2023-04-29T03:15:45;94416.97;;;3.61;72.36
77041;BME280;65974;42.664;23.264;2023-04-29T03:18:10;94420.81;;;3.52;72.83
77041;BME280;65974;42.664;23.264;2023-04-29T03:20:36;94414.47;;;3.53;72.76
77041;BME280;65974;42.664;23.264;2023-04-29T03:23:02;94425.78;;;3.41;73.48
77041;BME280;65974;42.664;23.264;2023-04-29T03:25:27;94424.47;;;3.35;73.55
77041;BME280;65974;42.664;23.264;2023-04-29T03:27:53;94435.56;;;3.29;73.36
77041;BME280;65974;42.664;23.264;2023-04-29T03:30:18;94444.00;;;3.22;73.92
77041;BME280;65974;42.664;23.264;2023-04-29T03:32:44;94440.84;;;3.17;74.01
77041;BME280;65974;42.664;23.264;2023-04-29T03:35:10;94451.13;;;3.22;73.79
77041;BME280;65974;42.664;23.264;2023-04-29T03:37:38;94448.47;;;3.22;73.48
77041;BME280;65974;42.664;23.264;2023-04-29T03:40:05;94449.25;;;3.22;73.06
77041;BME280;65974;42.664;23.264;2023-04-29T03:42:31;94447.72;;;3.33;72.48
77041;BME280;65974;42.664;23.264;2023-04-29T03:44:56;94444.09;;;3.38;72.19
77041;BME280;65974;42.664;23.264;2023-04-29T03:47:22;94443.88;;;3.43;72.25
77041;BME280;65974;42.664;23.264;2023-04-29T03:49:47;94439.19;;;3.36;72.48
77041;BME280;65974;42.664;23.264;2023-04-29T03:52:13;94431.81;;;3.42;72.92
77041;BME280;65974;42.664;23.264;2023-04-29T03:54:40;94429.81;;;3.51;72.46
77041;BME280;65974;42.664;23.264;2023-04-29T03:57:05;94434.72;;;3.64;71.78
77041;BME280;65974;42.664;23.264;2023-04-29T03:59:31;94444.25;;;3.69;71.65
77041;BME280;65974;42.664;23.264;2023-04-29T04:01:57;94444.53;;;3.79;71.49
77041;BME280;65974;42.664;23.264;2023-04-29T04:04:22;94444.47;;;3.76;72.73
77041;BME280;65974;42.664;23.264;2023-04-29T04:06:48;94452.34;;;3.76;73.16
77041;BME280;65974;42.664;23.264;2023-04-29T04:09:16;94451.16;;;3.73;73.00
77041;BME280;65974;42.664;23.264;2023-04-29T04:11:42;94452.56;;;3.83;73.22
77041;BME280;65974;42.664;23.264;2023-04-29T04:14:08;94452.19;;;3.97;72.79
77041;BME280;65974;42.664;23.264;2023-04-29T04:16:33;94454.50;;;3.98;72.86
77041;BME280;65974;42.664;23.264;2023-04-29T04:18:59;94444.53;;;3.91;72.51
77041;BME280;65974;42.664;23.264;2023-04-29T04:21:24;94449.59;;;3.84;72.83
77041;BME280;65974;42.664;23.264;2023-04-29T04:23:51;94453.31;;;3.83;72.67
77041;BME280;65974;42.664;23.264;2023-04-29T04:26:16;94448.81;;;3.84;72.62
77041;BME280;65974;42.664;23.264;2023-04-29T04:28:42;94443.66;;;3.87;72.76
77041;BME280;65974;42.664;23.264;2023-04-29T04:31:09;94444.28;;;3.97;72.88
77041;BME280;65974;42.664;23.264;2023-04-29T04:33:34;94443.84;;;3.94;73.07
77041;BME280;65974;42.664;23.264;2023-04-29T04:36:00;94445.13;;;4.01;72.36
77041;BME280;65974;42.664;23.264;2023-04-29T04:38:25;94454.09;;;4.12;72.57
77041;BME280;65974;42.664;23.264;2023-04-29T04:40:52;94444.53;;;4.19;71.43
77041;BME280;65974;42.664;23.264;2023-04-29T04:43:17;94456.22;;;4.34;71.72
77041;BME280;65974;42.664;23.264;2023-04-29T04:45:43;94449.78;;;4.47;70.69
77041;BME280;65974;42.664;23.264;2023-04-29T04:48:08;94455.72;;;4.44;70.40
77041;BME280;65974;42.664;23.264;2023-04-29T04:50:34;94451.22;;;4.60;69.76
77041;BME280;65974;42.664;23.264;2023-04-29T04:52:59;94446.25;;;4.70;69.61
77041;BME280;65974;42.664;23.264;2023-04-29T04:55:25;94443.44;;;4.79;69.36
77041;BME280;65974;42.664;23.264;2023-04-29T04:57:50;94442.16;;;4.89;69.07
77041;BME280;65974;42.664;23.264;2023-04-29T05:00:16;94443.25;;;5.03;68.71
77041;BME280;65974;42.664;23.264;2023-04-29T05:02:41;94441.03;;;5.21;68.27
77041;BME280;65974;42.664;23.264;2023-04-29T05:05:07;94429.00;;;5.23;66.81
77041;BME280;65974;42.664;23.264;2023-04-29T05:07:33;94427.63;;;5.29;67.67
77041;BME280;65974;42.664;23.264;2023-04-29T05:10:01;94429.94;;;5.31;67.44
77041;BME280;65974;42.664;23.264;2023-04-29T05:12:28;94422.13;;;5.54;66.69
77041;BME280;65974;42.664;23.264;2023-04-29T05:14:55;94427.41;;;5.54;66.14
77041;BME280;65974;42.664;23.264;2023-04-29T05:17:21;94409.34;;;5.56;65.77
77041;BME280;65974;42.664;23.264;2023-04-29T05:19:46;94417.91;;;5.68;65.65
77041;BME280;65974;42.664;23.264;2023-04-29T05:22:12;94411.50;;;5.69;65.40
77041;BME280;65974;42.664;23.264;2023-04-29T05:24:37;94410.41;;;5.70;65.50
77041;BME280;65974;42.664;23.264;2023-04-29T05:27:03;94412.13;;;5.82;65.39
77041;BME280;65974;42.664;23.264;2023-04-29T05:29:29;94410.63;;;5.81;65.25
77041;BME280;65974;42.664;23.264;2023-04-29T05:31:55;94405.50;;;5.88;65.16
77041;BME280;65974;42.664;23.264;2023-04-29T05:34:20;94403.81;;;5.99;65.10
77041;BME280;65974;42.664;23.264;2023-04-29T05:36:46;94418.84;;;5.95;65.19
77041;BME280;65974;42.664;23.264;2023-04-29T05:39:11;94408.00;;;6.00;65.51
77041;BME280;65974;42.664;23.264;2023-04-29T05:41:36;94416.78;;;6.04;65.48
77041;BME280;65974;42.664;23.264;2023-04-29T05:44:02;94409.81;;;6.15;64.62
77041;BME280;65974;42.664;23.264;2023-04-29T05:46:28;94414.59;;;6.09;64.45
77041;BME280;65974;42.664;23.264;2023-04-29T05:48:53;94415.50;;;6.17;63.91
77041;BME280;65974;42.664;23.264;2023-04-29T05:51:18;94417.75;;;6.15;64.21
77041;BME280;65974;42.664;23.264;2023-04-29T05:53:44;94419.03;;;6.24;64.05
77041;BME280;65974;42.664;23.264;2023-04-29T05:56:09;94423.16;;;6.22;63.59
77041;BME280;65974;42.664;23.264;2023-04-29T05:58:35;94412.34;;;6.31;63.41
77041;BME280;65974;42.664;23.264;2023-04-29T06:01:00;94422.38;;;6.41;62.95
77041;BME280;65974;42.664;23.264;2023-04-29T06:03:26;94417.16;;;6.44;63.42
77041;BME280;65974;42.664;23.264;2023-04-29T06:05:52;94417.97;;;6.48;62.86
77041;BME280;65974;42.664;23.264;2023-04-29T06:08:18;94419.78;;;6.44;62.80
77041;BME280;65974;42.664;23.264;2023-04-29T06:10:44;94414.97;;;6.50;62.40
77041;BME280;65974;42.664;23.264;2023-04-29T06:13:10;94418.88;;;6.56;62.51
77041;BME280;65974;42.664;23.264;2023-04-29T06:15:35;94412.03;;;6.55;62.14
77041;BME280;65974;42.664;23.264;2023-04-29T06:18:01;94412.91;;;6.62;62.34
77041;BME280;65974;42.664;23.264;2023-04-29T06:20:26;94417.50;;;6.65;62.25
77041;BME280;65974;42.664;23.264;2023-04-29T06:22:52;94415.09;;;6.79;62.35
77041;BME280;65974;42.664;23.264;2023-04-29T06:25:17;94421.97;;;7.07;61.86
77041;BME280;65974;42.664;23.264;2023-04-29T06:27:42;94423.97;;;7.13;61.42
77041;BME280;65974;42.664;23.264;2023-04-29T06:30:08;94424.53;;;7.26;60.52
77041;BME280;65974;42.664;23.264;2023-04-29T06:32:34;94429.13;;;7.29;60.37
77041;BME280;65974;42.664;23.264;2023-04-29T06:34:59;94417.09;;;7.35;60.43
77041;BME280;65974;42.664;23.264;2023-04-29T06:37:25;94418.75;;;7.43;59.80
77041;BME280;65974;42.664;23.264;2023-04-29T06:39:51;94419.16;;;7.45;60.09
77041;BME280;65974;42.664;23.264;2023-04-29T06:42:16;94418.13;;;7.53;60.31
77041;BME280;65974;42.664;23.264;2023-04-29T06:44:42;94418.94;;;7.57;59.86
77041;BME280;65974;42.664;23.264;2023-04-29T06:47:08;94418.66;;;7.65;59.16
77041;BME280;65974;42.664;23.264;2023-04-29T06:49:33;94420.13;;;7.63;59.37
77041;BME280;65974;42.664;23.264;2023-04-29T06:51:59;94421.31;;;7.65;59.40
77041;BME280;65974;42.664;23.264;2023-04-29T06:54:26;94406.84;;;7.89;59.04
77041;BME280;65974;42.664;23.264;2023-04-29T06:56:52;94414.34;;;8.13;58.12
77041;BME280;65974;42.664;23.264;2023-04-29T06:59:18;94420.59;;;8.28;58.42
77041;BME280;65974;42.664;23.264;2023-04-29T07:01:43;94411.59;;;8.36;57.31
77041;BME280;65974;42.664;23.264;2023-04-29T07:04:09;94421.16;;;8.14;57.16
77041;BME280;65974;42.664;23.264;2023-04-29T07:06:34;94410.19;;;8.16;57.34
77041;BME280;65974;42.664;23.264;2023-04-29T07:09:01;94401.00;;;8.39;58.24
77041;BME280;65974;42.664;23.264;2023-04-29T07:11:26;94400.38;;;8.49;57.10
77041;BME280;65974;42.664;23.264;2023-04-29T07:13:52;94393.25;;;8.60;56.66
77041;BME280;65974;42.664;23.264;2023-04-29T07:16:18;94402.34;;;8.59;56.13
77041;BME280;65974;42.664;23.264;2023-04-29T07:18:50;94396.34;;;8.66;56.21
77041;BME280;65974;42.664;23.264;2023-04-29T07:21:16;94397.03;;;8.59;56.11
77041;BME280;65974;42.664;23.264;2023-04-29T07:23:41;94392.16;;;8.65;54.84
77041;BME280;65974;42.664;23.264;2023-04-29T07:26:14;94396.00;;;8.71;54.28
77041;BME280;65974;42.664;23.264;2023-04-29T07:28:41;94407.16;;;8.87;54.14
77041;BME280;65974;42.664;23.264;2023-04-29T07:31:06;94396.31;;;9.06;52.54
77041;BME280;65974;42.664;23.264;2023-04-29T07:33:32;94394.50;;;9.21;52.58
77041;BME280;65974;42.664;23.264;2023-04-29T07:35:58;94392.44;;;9.55;52.82
77041;BME280;65974;42.664;23.264;2023-04-29T07:38:23;94395.16;;;9.65;50.65
77041;BME280;65974;42.664;23.264;2023-04-29T07:40:49;94401.22;;;9.59;50.00
77041;BME280;65974;42.664;23.264;2023-04-29T07:43:14;94392.50;;;9.62;49.61
77041;BME280;65974;42.664;23.264;2023-04-29T07:45:41;94401.38;;;9.90;49.81
77041;BME280;65974;42.664;23.264;2023-04-29T07:48:06;94391.25;;;10.21;49.08
77041;BME280;65974;42.664;23.264;2023-04-29T07:50:35;94387.56;;;10.50;49.46
77041;BME280;65974;42.664;23.264;2023-04-29T07:53:04;94383.00;;;10.61;49.08
77041;BME280;65974;42.664;23.264;2023-04-29T07:55:29;94380.34;;;10.82;49.06
77041;BME280;65974;42.664;23.264;2023-04-29T07:57:59;94378.06;;;10.84;46.22
77041;BME280;65974;42.664;23.264;2023-04-29T08:00:25;94378.47;;;10.89;48.06
77041;BME280;65974;42.664;23.264;2023-04-29T08:02:53;94373.91;;;11.04;48.13
77041;BME280;65974;42.664;23.264;2023-04-29T08:05:20;94375.44;;;11.02;47.05
77041;BME280;65974;42.664;23.264;2023-04-29T08:07:47;94375.03;;;11.00;47.25
77041;BME280;65974;42.664;23.264;2023-04-29T08:10:13;94377.72;;;10.89;46.73
77041;BME280;65974;42.664;23.264;2023-04-29T08:12:39;94377.69;;;11.03;47.63
77041;BME280;65974;42.664;23.264;2023-04-29T08:15:05;94370.88;;;11.02;46.96
77041;BME280;65974;42.664;23.264;2023-04-29T08:17:31;94368.19;;;11.20;45.95
77041;BME280;65974;42.664;23.264;2023-04-29T08:19:57;94368.16;;;11.44;45.78
77041;BME280;65974;42.664;23.264;2023-04-29T08:22:22;94370.44;;;11.49;46.19
77041;BME280;65974;42.664;23.264;2023-04-29T08:24:48;94359.72;;;11.63;46.04
77041;BME280;65974;42.664;23.264;2023-04-29T08:27:13;94365.75;;;12.03;44.72
77041;BME280;65974;42.664;23.264;2023-04-29T08:29:42;94363.34;;;12.26;45.56
77041;BME280;65974;42.664;23.264;2023-04-29T08:32:08;94361.44;;;12.26;44.50
77041;BME280;65974;42.664;23.264;2023-04-29T08:34:33;94359.97;;;12.15;45.01
77041;BME280;65974;42.664;23.264;2023-04-29T08:37:01;94356.41;;;12.35;44.18
77041;BME280;65974;42.664;23.264;2023-04-29T08:39:30;94355.16;;;12.58;43.63
77041;BME280;65974;42.664;23.264;2023-04-29T08:41:56;94357.28;;;12.80;44.06
77041;BME280;65974;42.664;23.264;2023-04-29T08:44:22;94353.28;;;12.51;43.37
77041;BME280;65974;42.664;23.264;2023-04-29T08:46:49;94352.59;;;12.36;43.55
77041;BME280;65974;42.664;23.264;2023-04-29T08:49:16;94357.16;;;12.39;43.80
77041;BME280;65974;42.664;23.264;2023-04-29T08:51:41;94334.84;;;12.71;43.45
77041;BME280;65974;42.664;23.264;2023-04-29T08:54:06;94338.09;;;12.96;42.70
77041;BME280;65974;42.664;23.264;2023-04-29T08:56:32;94346.94;;;12.86;42.95
77041;BME280;65974;42.664;23.264;2023-04-29T08:59:00;94345.03;;;12.86;42.92
77041;BME280;65974;42.664;23.264;2023-04-29T09:01:26;94340.66;;;12.55;42.88
77041;BME280;65974;42.664;23.264;2023-04-29T09:06:29;94333.56;;;13.34;42.23
77041;BME280;65974;42.664;23.264;2023-04-29T09:08:55;94335.03;;;13.42;41.62
77041;BME280;65974;42.664;23.264;2023-04-29T09:14:00;94327.38;;;13.44;41.98
77041;BME280;65974;42.664;23.264;2023-04-29T09:16:29;94334.72;;;13.70;41.76
77041;BME280;65974;42.664;23.264;2023-04-29T09:18:55;94327.75;;;13.79;41.08
77041;BME280;65974;42.664;23.264;2023-04-29T09:21:25;94322.41;;;13.79;40.45
77041;BME280;65974;42.664;23.264;2023-04-29T09:23:58;94327.72;;;13.83;41.21
77041;BME280;65974;42.664;23.264;2023-04-29T09:26:24;94319.88;;;13.99;39.96
77041;BME280;65974;42.664;23.264;2023-04-29T09:29:12;94327.81;;;14.06;41.19
77041;BME280;65974;42.664;23.264;2023-04-29T09:31:42;94317.09;;;14.06;39.61
77041;BME280;65974;42.664;23.264;2023-04-29T09:34:09;94307.28;;;13.96;40.76
77041;BME280;65974;42.664;23.264;2023-04-29T09:36:49;94315.41;;;13.89;41.13
77041;BME280;65974;42.664;23.264;2023-04-29T09:44:09;94293.53;;;13.94;40.67
77041;BME280;65974;42.664;23.264;2023-04-29T09:46:35;94299.19;;;13.99;40.11
77041;BME280;65974;42.664;23.264;2023-04-29T09:49:02;94301.78;;;14.07;41.01
77041;BME280;65974;42.664;23.264;2023-04-29T09:51:29;94300.81;;;14.24;40.92
77041;BME280;65974;42.664;23.264;2023-04-29T09:53:58;94289.31;;;14.27;40.65
77041;BME280;65974;42.664;23.264;2023-04-29T09:56:23;94289.69;;;14.29;40.61
77041;BME280;65974;42.664;23.264;2023-04-29T09:58:53;94283.50;;;14.32;40.32
77041;BME280;65974;42.664;23.264;2023-04-29T10:01:21;94283.66;;;14.48;41.02
77041;BME280;65974;42.664;23.264;2023-04-29T10:03:49;94284.19;;;14.39;40.51
77041;BME280;65974;42.664;23.264;2023-04-29T10:06:16;94282.22;;;14.40;40.55
77041;BME280;65974;42.664;23.264;2023-04-29T10:08:42;94276.13;;;14.39;39.91
77041;BME280;65974;42.664;23.264;2023-04-29T10:11:09;94270.13;;;14.28;39.98
77041;BME280;65974;42.664;23.264;2023-04-29T10:13:37;94267.84;;;14.30;39.40
77041;BME280;65974;42.664;23.264;2023-04-29T10:16:29;94267.34;;;14.39;39.15
77041;BME280;65974;42.664;23.264;2023-04-29T10:18:59;94259.22;;;14.42;39.82
77041;BME280;65974;42.664;23.264;2023-04-29T10:21:28;94261.81;;;14.49;40.03
77041;BME280;65974;42.664;23.264;2023-04-29T10:23:58;94253.63;;;14.33;39.63
77041;BME280;65974;42.664;23.264;2023-04-29T10:26:26;94260.56;;;14.27;40.44
77041;BME280;65974;42.664;23.264;2023-04-29T10:28:55;94258.88;;;14.40;39.47
77041;BME280;65974;42.664;23.264;2023-04-29T10:31:21;94264.34;;;14.60;39.90
77041;BME280;65974;42.664;23.264;2023-04-29T10:33:47;94263.22;;;14.57;39.01
77041;BME280;65974;42.664;23.264;2023-04-29T10:36:14;94255.75;;;14.45;39.83
77041;BME280;65974;42.664;23.264;2023-04-29T10:38:46;94255.06;;;14.41;39.78
77041;BME280;65974;42.664;23.264;2023-04-29T10:41:22;94259.28;;;14.39;40.19
77041;BME280;65974;42.664;23.264;2023-04-29T10:43:53;94256.34;;;14.56;39.30
77041;BME280;65974;42.664;23.264;2023-04-29T10:46:23;94262.25;;;14.71;39.55
77041;BME280;65974;42.664;23.264;2023-04-29T10:48:56;94260.63;;;14.77;38.47
77041;BME280;65974;42.664;23.264;2023-04-29T10:54:08;94258.56;;;14.85;38.14
77041;BME280;65974;42.664;23.264;2023-04-29T10:56:54;94260.56;;;14.81;38.69
77041;BME280;65974;42.664;23.264;2023-04-29T11:01:57;94256.19;;;14.90;38.05
77041;BME280;65974;42.664;23.264;2023-04-29T11:04:23;94251.69;;;14.84;37.46
77041;BME280;65974;42.664;23.264;2023-04-29T11:06:55;94244.69;;;14.90;37.90
77041;BME280;65974;42.664;23.264;2023-04-29T11:09:29;94253.44;;;14.70;37.17
77041;BME280;65974;42.664;23.264;2023-04-29T11:12:01;94249.91;;;14.77;36.73
77041;BME280;65974;42.664;23.264;2023-04-29T11:14:40;94250.41;;;14.68;36.98
77041;BME280;65974;42.664;23.264;2023-04-29T11:17:11;94247.28;;;14.73;36.78
77041;BME280;65974;42.664;23.264;2023-04-29T11:22:12;94248.53;;;14.65;35.92
77041;BME280;65974;42.664;23.264;2023-04-29T11:27:17;94233.28;;;14.86;34.34
77041;BME280;65974;42.664;23.264;2023-04-29T11:29:48;94244.94;;;14.75;34.32
77041;BME280;65974;42.664;23.264;2023-04-29T11:32:14;94242.38;;;14.68;34.50
77041;BME280;65974;42.664;23.264;2023-04-29T11:34:39;94238.66;;;14.62;34.43
77041;BME280;65974;42.664;23.264;2023-04-29T11:37:05;94244.63;;;14.70;33.40
77041;BME280;65974;42.664;23.264;2023-04-29T11:39:34;94244.16;;;14.52;34.47
77041;BME280;65974;42.664;23.264;2023-04-29T11:42:04;94232.00;;;14.47;33.46
77041;BME280;65974;42.664;23.264;2023-04-29T11:44:33;94235.13;;;14.42;33.14
77041;BME280;65974;42.664;23.264;2023-04-29T11:47:05;94234.06;;;14.36;33.99
77041;BME280;65974;42.664;23.264;2023-04-29T11:49:34;94234.84;;;14.37;33.69
77041;BME280;65974;42.664;23.264;2023-04-29T11:52:02;94244.78;;;14.36;34.32
77041;BME280;65974;42.664;23.264;2023-04-29T11:54:30;94238.63;;;14.39;34.56
77041;BME280;65974;42.664;23.264;2023-04-29T11:56:59;94231.31;;;14.40;34.91
77041;BME280;65974;42.664;23.264;2023-04-29T11:59:30;94240.47;;;14.42;36.53
77041;BME280;65974;42.664;23.264;2023-04-29T12:01:57;94235.69;;;14.30;37.94
77041;BME280;65974;42.664;23.264;2023-04-29T12:04:24;94226.13;;;14.29;37.80
77041;BME280;65974;42.664;23.264;2023-04-29T12:06:55;94226.03;;;14.36;38.29
77041;BME280;65974;42.664;23.264;2023-04-29T12:09:21;94222.56;;;14.39;38.32
77041;BME280;65974;42.664;23.264;2023-04-29T12:11:47;94228.28;;;14.38;39.23
77041;BME280;65974;42.664;23.264;2023-04-29T12:14:15;94229.00;;;14.42;38.48
77041;BME280;65974;42.664;23.264;2023-04-29T12:16:40;94223.69;;;14.38;37.74
77041;BME280;65974;42.664;23.264;2023-04-29T12:19:07;94213.88;;;14.28;37.44
77041;BME280;65974;42.664;23.264;2023-04-29T12:21:34;94223.00;;;14.34;37.87
77041;BME280;65974;42.664;23.264;2023-04-29T12:24:01;94221.09;;;14.35;36.83
77041;BME280;65974;42.664;23.264;2023-04-29T12:26:28;94222.28;;;14.30;36.51
77041;BME280;65974;42.664;23.264;2023-04-29T12:28:56;94218.34;;;14.38;37.17
77041;BME280;65974;42.664;23.264;2023-04-29T12:31:22;94209.50;;;14.41;37.07
77041;BME280;65974;42.664;23.264;2023-04-29T12:33:48;94210.56;;;14.47;36.98
77041;BME280;65974;42.664;23.264;2023-04-29T12:36:18;94217.03;;;14.50;37.60
77041;BME280;65974;42.664;23.264;2023-04-29T12:38:44;94221.56;;;14.53;38.30
77041;BME280;65974;42.664;23.264;2023-04-29T12:41:11;94215.81;;;14.54;38.26
77041;BME280;65974;42.664;23.264;2023-04-29T12:43:38;94210.47;;;14.51;37.35
77041;BME280;65974;42.664;23.264;2023-04-29T12:46:05;94200.81;;;14.57;37.94
77041;BME280;65974;42.664;23.264;2023-04-29T12:48:33;94208.47;;;14.58;37.51
77041;BME280;65974;42.664;23.264;2023-04-29T12:51:01;94207.63;;;14.61;37.78
77041;BME280;65974;42.664;23.264;2023-04-29T12:53:31;94201.13;;;14.62;37.67
77041;BME280;65974;42.664;23.264;2023-04-29T12:55:57;94209.84;;;14.66;37.44
77041;BME280;65974;42.664;23.264;2023-04-29T12:58:22;94191.38;;;14.72;37.02
77041;BME280;65974;42.664;23.264;2023-04-29T13:00:48;94197.03;;;14.77;37.12
77041;BME280;65974;42.664;23.264;2023-04-29T13:03:14;94199.41;;;14.72;37.71
77041;BME280;65974;42.664;23.264;2023-04-29T13:05:40;94200.59;;;14.71;38.66
77041;BME280;65974;42.664;23.264;2023-04-29T13:08:07;94198.88;;;14.81;38.34
77041;BME280;65974;42.664;23.264;2023-04-29T13:10:34;94191.06;;;14.90;37.95
77041;BME280;65974;42.664;23.264;2023-04-29T13:13:00;94191.22;;;15.02;38.14
77041;BME280;65974;42.664;23.264;2023-04-29T13:15:26;94199.50;;;15.11;39.43
77041;BME280;65974;42.664;23.264;2023-04-29T13:17:52;94193.97;;;15.18;39.38
77041;BME280;65974;42.664;23.264;2023-04-29T13:20:18;94204.78;;;15.15;39.65
77041;BME280;65974;42.664;23.264;2023-04-29T13:22:44;94196.97;;;15.24;41.65